createdAt,value
2018-05-24T00:00:00.863Z,52.81
2018-05-24T00:01:00.850Z,52.76
2018-05-24T00:02:00.841Z,52.78
2018-05-24T00:03:00.783Z,52.86
2018-05-24T00:04:10.797Z,52.75
2018-05-24T00:05:00.984Z,52.78
2018-05-24T00:06:01.668Z,52.8
2018-05-24T00:07:00.879Z,52.74
2018-05-24T00:08:00.821Z,52.78
2018-05-24T00:09:00.815Z,52.9
2018-05-24T00:10:00.847Z,52.82
2018-05-24T00:11:00.817Z,52.83
2018-05-24T00:12:00.971Z,52.86
2018-05-24T00:13:00.888Z,52.9
2018-05-24T00:14:00.806Z,52.84
2018-05-24T00:15:00.908Z,52.85
2018-05-24T00:16:00.749Z,52.75
2018-05-24T00:17:00.912Z,52.78
2018-05-24T00:18:00.826Z,52.86
2018-05-24T00:19:00.952Z,52.81
2018-05-24T00:20:00.936Z,52.86
2018-05-24T00:21:00.733Z,52.72
2018-05-24T00:22:00.734Z,52.82
2018-05-24T00:23:00.923Z,52.84
2018-05-24T00:24:00.857Z,52.81
2018-05-24T00:25:10.934Z,52.9
2018-05-24T00:26:00.931Z,52.76
2018-05-24T00:27:00.878Z,52.87
2018-05-24T00:28:00.961Z,52.8
2018-05-24T00:29:00.998Z,52.79
2018-05-24T00:30:00.718Z,52.88
2018-05-24T00:31:00.938Z,52.84
2018-05-24T00:32:00.997Z,52.86
2018-05-24T00:33:00.850Z,52.84
2018-05-24T00:34:00.836Z,52.78
2018-05-24T00:35:00.972Z,52.83
2018-05-24T00:36:01.081Z,52.86
2018-05-24T00:37:00.774Z,52.82
2018-05-24T00:38:00.856Z,52.8
2018-05-24T00:39:00.906Z,52.83
2018-05-24T00:40:00.939Z,52.76
2018-05-24T00:41:00.894Z,52.84
2018-05-24T00:42:00.949Z,52.77
2018-05-24T00:43:00.813Z,52.73
2018-05-24T00:44:00.815Z,52.82
2018-05-24T00:45:00.957Z,52.83
2018-05-24T00:46:00.783Z,52.81
2018-05-24T00:47:00.750Z,52.78
2018-05-24T00:48:00.890Z,52.82
2018-05-24T00:49:00.732Z,52.81
2018-05-24T00:50:01.699Z,52.76
2018-05-24T00:51:00.833Z,52.82
2018-05-24T00:52:00.998Z,52.75
2018-05-24T00:53:01.963Z,52.82
2018-05-24T00:54:00.300Z,52.86
2018-05-24T00:55:00.050Z,52.83
2018-05-24T00:56:00.254Z,52.75
2018-05-24T00:57:00.242Z,52.84
2018-05-24T00:58:00.696Z,52.76
2018-05-24T00:59:00.177Z,52.78
2018-05-24T01:00:00.132Z,52.78
2018-05-24T01:01:00.566Z,52.81
2018-05-24T01:02:00.145Z,52.83
2018-05-24T01:03:00.223Z,52.82
2018-05-24T01:04:10.065Z,52.85
2018-05-24T01:05:00.580Z,52.82
2018-05-24T01:06:00.212Z,52.85
2018-05-24T01:07:00.219Z,52.78
2018-05-24T01:08:00.201Z,52.76
2018-05-24T01:09:00.060Z,52.79
2018-05-24T01:10:00.178Z,52.82
2018-05-24T01:11:00.166Z,52.81
2018-05-24T01:12:00.202Z,52.81
2018-05-24T01:13:00.096Z,52.75
2018-05-24T01:14:00.134Z,52.8
2018-05-24T01:15:00.118Z,52.79
2018-05-24T01:15:59.986Z,52.78
2018-05-24T01:17:00.179Z,52.82
2018-05-24T01:18:00.106Z,52.77
2018-05-24T01:19:00.306Z,52.84
2018-05-24T01:20:00.643Z,52.8
2018-05-24T01:21:00.204Z,52.79
2018-05-24T01:22:00.157Z,52.79
2018-05-24T01:23:00.212Z,52.87
2018-05-24T01:24:00.228Z,52.82
2018-05-24T01:25:00.085Z,52.81
2018-05-24T01:26:00.593Z,52.82
2018-05-24T01:27:00.150Z,52.78
2018-05-24T01:28:00.197Z,52.82
2018-05-24T01:29:00.362Z,52.81
2018-05-24T01:30:00.239Z,52.8
2018-05-24T01:31:00.142Z,52.83
2018-05-24T01:32:00.243Z,52.76
2018-05-24T01:33:00.323Z,52.82
2018-05-24T01:34:00.027Z,52.8
2018-05-24T01:35:00.129Z,52.8
2018-05-24T01:36:00.288Z,52.82
2018-05-24T01:37:00.261Z,52.74
2018-05-24T01:38:01.378Z,52.84
2018-05-24T01:39:00.190Z,52.83
2018-05-24T01:40:00.259Z,52.85
2018-05-24T01:41:00.248Z,52.72
2018-05-24T01:42:00.285Z,52.76
2018-05-24T01:43:00.080Z,52.77
2018-05-24T01:44:00.222Z,52.72
2018-05-24T01:45:00.106Z,52.72
2018-05-24T01:46:00.138Z,52.81
2018-05-24T01:47:00.268Z,52.79
2018-05-24T01:48:00.165Z,52.78
2018-05-24T01:49:00.116Z,52.78
2018-05-24T01:50:00.623Z,52.84
2018-05-24T01:51:00.296Z,52.76
2018-05-24T01:52:00.046Z,52.76
2018-05-24T01:53:00.314Z,52.82
2018-05-24T01:54:01.355Z,52.88
2018-05-24T01:55:00.217Z,52.73
2018-05-24T01:56:00.182Z,52.82
2018-05-24T01:57:00.094Z,52.73
2018-05-24T01:57:59.998Z,52.83
2018-05-24T01:59:00.265Z,52.79
2018-05-24T02:00:00.144Z,52.76
2018-05-24T02:01:10.060Z,52.81
2018-05-24T02:02:00.537Z,52.76
2018-05-24T02:03:00.189Z,52.77
2018-05-24T02:04:00.321Z,52.74
2018-05-24T02:05:00.278Z,52.75
2018-05-24T02:06:00.048Z,52.73
2018-05-24T02:07:00.291Z,52.8
2018-05-24T02:08:00.164Z,52.76
2018-05-24T02:09:00.247Z,52.8
2018-05-24T02:10:00.153Z,52.66
2018-05-24T02:11:00.094Z,52.72
2018-05-24T02:12:00.328Z,52.77
2018-05-24T02:13:00.140Z,52.74
2018-05-24T02:14:00.220Z,52.79
2018-05-24T02:15:00.259Z,52.81
2018-05-24T02:16:00.193Z,52.72
2018-05-24T02:17:00.151Z,52.72
2018-05-24T02:18:00.117Z,52.8
2018-05-24T02:19:00.029Z,52.75
2018-05-24T02:20:00.304Z,52.69
2018-05-24T02:21:00.088Z,52.74
2018-05-24T02:22:00.024Z,52.82
2018-05-24T02:23:00.227Z,52.81
2018-05-24T02:24:00.053Z,52.78
2018-05-24T02:25:00.061Z,52.8
2018-05-24T02:26:00.197Z,52.76
2018-05-24T02:27:00.266Z,52.77
2018-05-24T02:28:00.253Z,52.73
2018-05-24T02:29:00.295Z,52.7
2018-05-24T02:30:00.244Z,52.77
2018-05-24T02:31:00.158Z,52.74
2018-05-24T02:32:00.047Z,52.69
2018-05-24T02:33:00.028Z,52.73
2018-05-24T02:34:00.185Z,52.78
2018-05-24T02:35:00.175Z,52.73
2018-05-24T02:36:00.701Z,52.68
2018-05-24T02:37:00.177Z,52.73
2018-05-24T02:38:00.240Z,52.73
2018-05-24T02:39:00.089Z,52.79
2018-05-24T02:40:00.206Z,52.81
2018-05-24T02:41:00.286Z,52.74
2018-05-24T02:42:00.049Z,52.78
2018-05-24T02:43:00.162Z,52.69
2018-05-24T02:44:00.245Z,52.75
2018-05-24T02:45:00.233Z,52.76
2018-05-24T02:46:00.065Z,52.8
2018-05-24T02:47:00.258Z,52.72
2018-05-24T02:48:00.234Z,52.7
2018-05-24T02:49:00.077Z,52.72
2018-05-24T02:50:00.296Z,52.73
2018-05-24T02:51:00.019Z,52.72
2018-05-24T02:52:00.282Z,52.76
2018-05-24T02:53:00.263Z,52.75
2018-05-24T02:54:00.701Z,52.8
2018-05-24T02:55:00.216Z,52.79
2018-05-24T02:56:00.110Z,52.68
2018-05-24T02:57:00.217Z,52.74
2018-05-24T02:58:00.135Z,52.8
2018-05-24T02:59:00.244Z,52.71
2018-05-24T03:00:00.187Z,52.71
2018-05-24T03:01:00.223Z,52.76
2018-05-24T03:02:00.040Z,52.75
2018-05-24T03:03:00.257Z,52.81
2018-05-24T03:04:00.072Z,52.74
2018-05-24T03:05:00.274Z,52.73
2018-05-24T03:06:00.044Z,52.77
2018-05-24T03:07:00.125Z,52.76
2018-05-24T03:08:00.219Z,52.72
2018-05-24T03:08:59.996Z,52.79
2018-05-24T03:10:00.394Z,52.71
2018-05-24T03:11:00.168Z,52.71
2018-05-24T03:12:00.193Z,52.74
2018-05-24T03:13:00.172Z,52.7
2018-05-24T03:14:00.063Z,52.77
2018-05-24T03:15:00.081Z,52.71
2018-05-24T03:16:00.171Z,52.8
2018-05-24T03:17:00.065Z,52.67
2018-05-24T03:18:00.030Z,52.68
2018-05-24T03:19:00.104Z,52.74
2018-05-24T03:20:00.090Z,52.76
2018-05-24T03:21:00.189Z,52.7
2018-05-24T03:22:00.197Z,52.74
2018-05-24T03:23:00.090Z,52.73
2018-05-24T03:24:00.142Z,52.76
2018-05-24T03:25:00.063Z,52.74
2018-05-24T03:26:00.254Z,52.7
2018-05-24T03:26:59.927Z,52.75
2018-05-24T03:28:00.108Z,52.7
2018-05-24T03:29:00.165Z,52.62
2018-05-24T03:30:00.292Z,52.78
2018-05-24T03:31:00.006Z,52.71
2018-05-24T03:32:00.186Z,52.73
2018-05-24T03:33:00.052Z,52.67
2018-05-24T03:34:00.369Z,52.66
2018-05-24T03:35:00.122Z,52.66
2018-05-24T03:36:00.029Z,52.59
2018-05-24T03:37:00.220Z,52.7
2018-05-24T03:38:00.237Z,52.82
2018-05-24T03:39:00.091Z,52.71
2018-05-24T03:40:00.143Z,52.69
2018-05-24T03:41:00.534Z,52.73
2018-05-24T03:42:00.091Z,52.73
2018-05-24T03:43:00.224Z,52.69
2018-05-24T03:44:00.241Z,52.69
2018-05-24T03:45:00.013Z,52.75
2018-05-24T03:46:00.139Z,52.69
2018-05-24T03:47:00.135Z,52.68
2018-05-24T03:48:00.262Z,52.76
2018-05-24T03:49:00.233Z,52.66
2018-05-24T03:50:00.181Z,52.73
2018-05-24T03:51:00.385Z,52.79
2018-05-24T03:52:00.358Z,52.76
2018-05-24T03:53:00.124Z,52.69
2018-05-24T03:54:20.503Z,52.74
2018-05-24T03:55:00.247Z,52.71
2018-05-24T03:56:00.113Z,52.71
2018-05-24T03:57:00.206Z,52.78
2018-05-24T03:58:00.104Z,52.74
2018-05-24T03:59:00.015Z,52.76
2018-05-24T04:00:00.115Z,52.78
2018-05-24T04:01:00.123Z,52.7
2018-05-24T04:02:00.157Z,52.85
2018-05-24T04:03:00.125Z,52.72
2018-05-24T04:04:00.206Z,52.69
2018-05-24T04:05:00.103Z,52.73
2018-05-24T04:06:00.454Z,52.76
2018-05-24T04:07:00.052Z,52.69
2018-05-24T04:08:00.147Z,52.76
2018-05-24T04:08:59.957Z,52.71
2018-05-24T04:10:00.103Z,52.74
2018-05-24T04:11:00.077Z,52.68
2018-05-24T04:12:00.149Z,52.68
2018-05-24T04:13:00.064Z,52.71
2018-05-24T04:14:00.418Z,52.71
2018-05-24T04:15:00.179Z,52.68
2018-05-24T04:16:00.596Z,52.68
2018-05-24T04:17:00.127Z,52.71
2018-05-24T04:18:00.128Z,52.72
2018-05-24T04:19:00.141Z,52.65
2018-05-24T04:20:00.036Z,52.74
2018-05-24T04:21:00.149Z,52.74
2018-05-24T04:22:00.099Z,52.71
2018-05-24T04:23:00.121Z,52.66
2018-05-24T04:24:00.199Z,52.7
2018-05-24T04:25:00.308Z,52.65
2018-05-24T04:26:00.173Z,52.67
2018-05-24T04:27:00.208Z,52.73
2018-05-24T04:28:00.250Z,52.75
2018-05-24T04:29:00.032Z,52.67
2018-05-24T04:30:00.168Z,52.71
2018-05-24T04:31:00.154Z,52.66
2018-05-24T04:32:00.119Z,52.62
2018-05-24T04:33:00.311Z,52.65
2018-05-24T04:34:00.179Z,52.69
2018-05-24T04:35:00.155Z,52.69
2018-05-24T04:36:00.391Z,52.64
2018-05-24T04:37:00.142Z,52.64
2018-05-24T04:38:00.026Z,52.68
2018-05-24T04:39:00.220Z,52.65
2018-05-24T04:40:00.122Z,52.73
2018-05-24T04:41:00.253Z,52.66
2018-05-24T04:42:00.210Z,52.69
2018-05-24T04:43:00.233Z,52.67
2018-05-24T04:44:00.192Z,52.66
2018-05-24T04:45:00.074Z,52.7
2018-05-24T04:46:00.069Z,52.71
2018-05-24T04:47:00.001Z,52.66
2018-05-24T04:48:00.218Z,52.71
2018-05-24T04:49:00.156Z,52.65
2018-05-24T04:50:00.174Z,52.61
2018-05-24T04:51:00.067Z,52.69
2018-05-24T04:52:00.128Z,52.68
2018-05-24T04:53:00.055Z,52.72
2018-05-24T04:54:00.397Z,52.64
2018-05-24T04:55:00.225Z,52.57
2018-05-24T04:55:59.999Z,52.71
2018-05-24T04:56:59.982Z,52.67
2018-05-24T04:58:00.166Z,52.68
2018-05-24T04:59:00.252Z,52.63
2018-05-24T05:00:00.157Z,52.66
2018-05-24T05:01:00.083Z,52.65
2018-05-24T05:02:00.219Z,52.62
2018-05-24T05:03:00.162Z,52.65
2018-05-24T05:04:00.208Z,52.63
2018-05-24T05:05:10.050Z,52.67
2018-05-24T05:06:00.362Z,52.66
2018-05-24T05:07:00.198Z,52.72
2018-05-24T05:08:00.078Z,52.64
2018-05-24T05:09:00.110Z,52.65
2018-05-24T05:10:00.022Z,52.63
2018-05-24T05:11:00.137Z,52.65
2018-05-24T05:12:00.327Z,52.59
2018-05-24T05:13:00.143Z,52.67
2018-05-24T05:14:00.229Z,52.67
2018-05-24T05:15:00.086Z,52.7
2018-05-24T05:16:00.202Z,52.69
2018-05-24T05:17:00.153Z,52.63
2018-05-24T05:17:59.997Z,52.65
2018-05-24T05:18:59.964Z,52.69
2018-05-24T05:20:00.019Z,52.71
2018-05-24T05:21:00.139Z,52.65
2018-05-24T05:22:00.233Z,52.59
2018-05-24T05:23:00.442Z,52.72
2018-05-24T05:24:00.027Z,52.62
2018-05-24T05:25:00.243Z,52.68
2018-05-24T05:26:00.140Z,52.65
2018-05-24T05:27:00.266Z,52.7
2018-05-24T05:28:00.024Z,52.66
2018-05-24T05:29:00.124Z,52.58
2018-05-24T05:30:00.290Z,52.68
2018-05-24T05:31:00.043Z,52.66
2018-05-24T05:32:00.136Z,52.63
2018-05-24T05:33:00.003Z,52.66
2018-05-24T05:34:00.141Z,52.68
2018-05-24T05:35:00.126Z,52.64
2018-05-24T05:36:00.081Z,52.67
2018-05-24T05:37:00.250Z,52.63
2018-05-24T05:38:00.173Z,52.65
2018-05-24T05:39:00.102Z,52.63
2018-05-24T05:40:00.208Z,52.63
2018-05-24T05:41:00.083Z,52.65
2018-05-24T05:42:00.030Z,52.61
2018-05-24T05:43:00.206Z,52.63
2018-05-24T05:44:00.141Z,52.64
2018-05-24T05:45:00.022Z,52.63
2018-05-24T05:46:00.016Z,52.6
2018-05-24T05:47:00.328Z,52.63
2018-05-24T05:48:00.153Z,52.58
2018-05-24T05:49:00.094Z,52.61
2018-05-24T05:50:00.095Z,52.62
2018-05-24T05:50:59.991Z,52.64
2018-05-24T05:52:00.292Z,52.6
2018-05-24T05:53:00.198Z,52.58
2018-05-24T05:54:00.232Z,52.59
2018-05-24T05:55:00.261Z,52.56
2018-05-24T05:56:00.135Z,52.58
2018-05-24T05:57:00.031Z,52.65
2018-05-24T05:58:00.145Z,52.63
2018-05-24T05:59:00.173Z,52.65
2018-05-24T05:59:59.963Z,52.58
2018-05-24T06:01:00.040Z,52.61
2018-05-24T06:02:00.261Z,52.63
2018-05-24T06:03:00.120Z,52.63
2018-05-24T06:04:00.111Z,52.68
2018-05-24T06:05:00.221Z,52.68
2018-05-24T06:06:00.067Z,52.75
2018-05-24T06:07:00.093Z,52.69
2018-05-24T06:08:00.093Z,52.63
2018-05-24T06:09:00.004Z,52.62
2018-05-24T06:09:59.954Z,52.58
2018-05-24T06:10:59.986Z,52.62
2018-05-24T06:12:00.260Z,52.75
2018-05-24T06:13:00.191Z,52.7
2018-05-24T06:14:00.041Z,52.64
2018-05-24T06:15:00.095Z,52.69
2018-05-24T06:16:00.401Z,52.6
2018-05-24T06:17:00.155Z,52.64
2018-05-24T06:18:00.097Z,52.66
2018-05-24T06:19:00.167Z,52.63
2018-05-24T06:20:00.069Z,52.68
2018-05-24T06:21:00.155Z,52.62
2018-05-24T06:21:59.985Z,52.59
2018-05-24T06:23:00.115Z,52.61
2018-05-24T06:24:00.125Z,52.59
2018-05-24T06:25:00.114Z,52.56
2018-05-24T06:26:00.124Z,52.52
2018-05-24T06:26:59.964Z,52.59
2018-05-24T06:28:00.206Z,52.61
2018-05-24T06:29:00.195Z,52.54
2018-05-24T06:30:00.125Z,52.57
2018-05-24T06:31:00.093Z,52.56
2018-05-24T06:32:00.854Z,52.57
2018-05-24T06:33:00.149Z,52.6
2018-05-24T06:34:00.225Z,52.57
2018-05-24T06:35:00.100Z,52.56
2018-05-24T06:35:59.980Z,52.56
2018-05-24T06:37:00.204Z,52.51
2018-05-24T06:38:00.171Z,52.58
2018-05-24T06:39:00.281Z,52.52
2018-05-24T06:40:00.072Z,52.5
2018-05-24T06:41:00.054Z,52.52
2018-05-24T06:42:00.228Z,52.54
2018-05-24T06:42:59.964Z,52.49
2018-05-24T06:44:00.153Z,52.6
2018-05-24T06:45:00.034Z,52.58
2018-05-24T06:46:00.248Z,52.56
2018-05-24T06:47:00.203Z,52.53
2018-05-24T06:48:00.049Z,52.55
2018-05-24T06:49:00.068Z,52.52
2018-05-24T06:50:00.133Z,52.54
2018-05-24T06:51:00.172Z,52.6
2018-05-24T06:52:00.097Z,52.5
2018-05-24T06:53:00.105Z,52.58
2018-05-24T06:54:00.233Z,52.52
2018-05-24T06:54:59.972Z,52.61
2018-05-24T06:56:00.081Z,52.57
2018-05-24T06:57:00.180Z,52.55
2018-05-24T06:58:00.002Z,52.55
2018-05-24T06:59:00.113Z,52.52
2018-05-24T07:00:00.259Z,52.6
2018-05-24T07:01:00.043Z,52.55
2018-05-24T07:02:00.080Z,52.53
2018-05-24T07:03:00.073Z,52.5
2018-05-24T07:04:00.152Z,52.52
2018-05-24T07:04:59.953Z,52.5
2018-05-24T07:06:00.322Z,52.54
2018-05-24T07:07:00.137Z,52.56
2018-05-24T07:08:00.118Z,52.51
2018-05-24T07:09:00.091Z,52.54
2018-05-24T07:10:00.112Z,52.48
2018-05-24T07:11:00.125Z,52.52
2018-05-24T07:11:59.972Z,52.51
2018-05-24T07:13:00.032Z,52.49
2018-05-24T07:14:00.035Z,52.53
2018-05-24T07:15:00.122Z,52.58
2018-05-24T07:16:00.071Z,52.58
2018-05-24T07:17:00.022Z,52.53
2018-05-24T07:17:59.975Z,52.47
2018-05-24T07:19:00.002Z,52.52
2018-05-24T07:20:00.189Z,52.57
2018-05-24T07:20:59.963Z,52.52
2018-05-24T07:21:59.949Z,52.46
2018-05-24T07:23:00.071Z,52.51
2018-05-24T07:24:00.164Z,52.53
2018-05-24T07:25:00.112Z,52.54
2018-05-24T07:26:00.164Z,52.61
2018-05-24T07:27:00.177Z,52.56
2018-05-24T07:28:00.170Z,52.49
2018-05-24T07:29:00.012Z,52.51
2018-05-24T07:29:59.925Z,52.61
2018-05-24T07:30:59.968Z,52.57
2018-05-24T07:32:00.144Z,52.51
2018-05-24T07:33:00.153Z,52.49
2018-05-24T07:34:00.011Z,52.47
2018-05-24T07:35:00.139Z,52.54
2018-05-24T07:36:00.078Z,52.53
2018-05-24T07:36:59.993Z,52.51
2018-05-24T07:37:59.948Z,52.5
2018-05-24T07:39:20.422Z,52.51
2018-05-24T07:40:00.021Z,52.51
2018-05-24T07:41:00.071Z,52.52
2018-05-24T07:42:00.066Z,52.5
2018-05-24T07:42:59.949Z,52.53
2018-05-24T07:43:59.961Z,52.52
2018-05-24T07:45:00.341Z,52.5
2018-05-24T07:46:00.136Z,52.55
2018-05-24T07:47:00.202Z,52.44
2018-05-24T07:47:59.974Z,52.48
2018-05-24T07:49:00.133Z,52.47
2018-05-24T07:49:59.961Z,52.49
2018-05-24T07:51:00.061Z,52.52
2018-05-24T07:52:00.114Z,52.48
2018-05-24T07:53:00.141Z,52.46
2018-05-24T07:54:03.105Z,52.53
2018-05-24T07:54:59.950Z,52.47
2018-05-24T07:56:00.017Z,52.53
2018-05-24T07:57:00.135Z,52.49
2018-05-24T07:58:00.143Z,52.46
2018-05-24T07:59:00.004Z,52.48
2018-05-24T08:00:00.020Z,52.46
2018-05-24T08:01:00.152Z,52.51
2018-05-24T08:02:00.080Z,52.51
2018-05-24T08:02:59.989Z,52.52
2018-05-24T08:04:00.181Z,52.46
2018-05-24T08:04:59.846Z,52.44
2018-05-24T08:05:59.987Z,52.78
2018-05-24T08:07:00.168Z,52.76
2018-05-24T08:08:00.068Z,52.57
2018-05-24T08:09:00.016Z,52.59
2018-05-24T08:10:00.045Z,52.72
2018-05-24T08:11:00.054Z,52.85
2018-05-24T08:12:00.111Z,53.01
2018-05-24T08:13:00.142Z,53.01
2018-05-24T08:13:59.978Z,53.19
2018-05-24T08:15:00.186Z,53.46
2018-05-24T08:15:59.973Z,53.35
2018-05-24T08:17:00.287Z,53.46
2018-05-24T08:18:00.034Z,53.2
2018-05-24T08:19:00.221Z,53.26
2018-05-24T08:20:00.268Z,53.32
2018-05-24T08:20:59.977Z,54.18
2018-05-24T08:22:00.033Z,53.91
2018-05-24T08:22:59.994Z,53.92
2018-05-24T08:24:00.098Z,53.88
2018-05-24T08:24:59.960Z,53.87
2018-05-24T08:26:00.206Z,53.74
2018-05-24T08:26:59.987Z,53.79
2018-05-24T08:28:00.209Z,54.15
2018-05-24T08:28:59.987Z,53.71
2018-05-24T08:30:00.051Z,53.52
2018-05-24T08:31:00.027Z,53.8
2018-05-24T08:31:59.956Z,53.73
2018-05-24T08:33:00.108Z,53.97
2018-05-24T08:34:00.007Z,53.9
2018-05-24T08:35:00.129Z,53.75
2018-05-24T08:36:00.045Z,53.75
2018-05-24T08:37:00.168Z,53.75
2018-05-24T08:38:00.212Z,53.73
2018-05-24T08:39:00.000Z,53.61
2018-05-24T08:40:00.467Z,53.52
2018-05-24T08:41:00.257Z,53.37
2018-05-24T08:42:00.098Z,53.44
2018-05-24T08:43:00.146Z,53.35
2018-05-24T08:43:59.979Z,53.33
2018-05-24T08:45:00.195Z,53.44
2018-05-24T08:46:00.014Z,53.38
2018-05-24T08:47:00.130Z,53.33
2018-05-24T08:47:59.994Z,53.31
2018-05-24T08:49:00.014Z,53.23
2018-05-24T08:49:59.857Z,53.29
2018-05-24T08:51:00.034Z,53.33
2018-05-24T08:52:00.148Z,53.26
2018-05-24T08:52:59.929Z,53.26
2018-05-24T08:54:00.168Z,53.28
2018-05-24T08:55:00.186Z,53.17
2018-05-24T08:56:00.152Z,53.2
2018-05-24T08:56:59.994Z,53.22
2018-05-24T08:58:00.177Z,53.15
2018-05-24T08:59:00.062Z,53.28
2018-05-24T09:00:00.023Z,53.17
2018-05-24T09:00:59.925Z,53.15
2018-05-24T09:02:00.037Z,53.21
2018-05-24T09:03:00.074Z,53.16
2018-05-24T09:03:59.962Z,53.22
2018-05-24T09:05:00.113Z,53.11
2018-05-24T09:06:00.232Z,53.17
2018-05-24T09:07:00.074Z,53.11
2018-05-24T09:08:00.076Z,53.1
2018-05-24T09:09:00.068Z,53.22
2018-05-24T09:09:59.954Z,53.08
2018-05-24T09:11:00.115Z,53.1
2018-05-24T09:12:00.103Z,53.19
2018-05-24T09:12:59.972Z,53.11
2018-05-24T09:14:00.098Z,53.06
2018-05-24T09:15:00.137Z,53.16
2018-05-24T09:15:59.960Z,53.17
2018-05-24T09:17:00.282Z,53.08
2018-05-24T09:18:00.356Z,53.19
2018-05-24T09:18:59.929Z,53.07
2018-05-24T09:20:00.237Z,53.02
2018-05-24T09:21:00.094Z,53.06
2018-05-24T09:22:00.052Z,53.11
2018-05-24T09:23:00.012Z,53.07
2018-05-24T09:24:00.025Z,53.03
2018-05-24T09:25:00.167Z,53.01
2018-05-24T09:26:00.069Z,53.11
2018-05-24T09:27:00.090Z,52.99
2018-05-24T09:28:00.076Z,53.02
2018-05-24T09:29:00.061Z,53.09
2018-05-24T09:30:00.079Z,53.05
2018-05-24T09:31:00.154Z,53.07
2018-05-24T09:32:00.176Z,53.03
2018-05-24T09:33:00.027Z,53
2018-05-24T09:33:59.911Z,53
2018-05-24T09:35:00.110Z,53
2018-05-24T09:36:00.201Z,53.05
2018-05-24T09:36:59.881Z,53.01
2018-05-24T09:38:00.121Z,52.95
2018-05-24T09:39:00.169Z,52.95
2018-05-24T09:40:00.051Z,52.97
2018-05-24T09:41:00.002Z,52.99
2018-05-24T09:42:00.011Z,52.95
2018-05-24T09:43:00.181Z,52.94
2018-05-24T09:44:00.188Z,52.92
2018-05-24T09:45:00.050Z,52.96
2018-05-24T09:45:59.830Z,52.93
2018-05-24T09:47:00.067Z,52.9
2018-05-24T09:48:00.131Z,52.87
2018-05-24T09:48:59.995Z,52.9
2018-05-24T09:49:59.895Z,52.9
2018-05-24T09:51:00.105Z,52.95
2018-05-24T09:52:00.128Z,52.93
2018-05-24T09:53:00.004Z,52.93
2018-05-24T09:54:00.368Z,52.91
2018-05-24T09:54:59.969Z,52.94
2018-05-24T09:56:00.069Z,52.9
2018-05-24T09:57:00.046Z,52.87
2018-05-24T09:58:00.174Z,52.88
2018-05-24T09:58:59.930Z,52.9
2018-05-24T10:00:00.417Z,52.86
2018-05-24T10:01:00.102Z,52.88
2018-05-24T10:02:00.156Z,52.84
2018-05-24T10:03:00.101Z,52.92
2018-05-24T10:03:59.936Z,52.87
2018-05-24T10:05:00.262Z,52.86
2018-05-24T10:05:59.984Z,52.84
2018-05-24T10:06:59.992Z,52.81
2018-05-24T10:08:00.080Z,52.83
2018-05-24T10:08:59.913Z,52.91
2018-05-24T10:10:00.057Z,52.88
2018-05-24T10:11:00.003Z,52.84
2018-05-24T10:11:59.881Z,52.79
2018-05-24T10:13:00.084Z,52.82
2018-05-24T10:14:00.078Z,52.83
2018-05-24T10:14:59.894Z,52.83
2018-05-24T10:15:59.990Z,52.85
2018-05-24T10:16:59.966Z,52.77
2018-05-24T10:18:00.217Z,52.86
2018-05-24T10:19:00.481Z,52.85
2018-05-24T10:20:00.119Z,52.81
2018-05-24T10:20:59.973Z,52.8
2018-05-24T10:21:59.968Z,52.86
2018-05-24T10:23:00.153Z,52.8
2018-05-24T10:24:00.113Z,52.88
2018-05-24T10:24:59.942Z,52.74
2018-05-24T10:26:00.228Z,52.75
2018-05-24T10:26:59.970Z,52.78
2018-05-24T10:28:00.243Z,52.76
2018-05-24T10:29:00.115Z,52.82
2018-05-24T10:29:59.982Z,52.85
2018-05-24T10:31:00.418Z,52.8
2018-05-24T10:31:59.903Z,52.78
2018-05-24T10:32:59.913Z,52.75
2018-05-24T10:34:00.127Z,52.79
2018-05-24T10:35:00.099Z,52.78
2018-05-24T10:35:59.993Z,52.76
2018-05-24T10:37:01.557Z,52.71
2018-05-24T10:38:00.598Z,52.71
2018-05-24T10:39:00.010Z,52.77
2018-05-24T10:40:00.022Z,52.77
2018-05-24T10:40:59.937Z,52.74
2018-05-24T10:41:59.818Z,52.73
2018-05-24T10:43:00.118Z,52.76
2018-05-24T10:44:00.092Z,52.7
2018-05-24T10:45:00.137Z,52.8
2018-05-24T10:45:59.917Z,52.74
2018-05-24T10:46:59.940Z,52.74
2018-05-24T10:48:00.029Z,52.76
2018-05-24T10:48:59.942Z,52.8
2018-05-24T10:50:00.045Z,52.72
2018-05-24T10:51:00.009Z,52.73
2018-05-24T10:52:00.100Z,52.78
2018-05-24T10:53:00.145Z,52.71
2018-05-24T10:54:00.154Z,52.72
2018-05-24T10:54:59.899Z,52.73
2018-05-24T10:56:00.105Z,52.73
2018-05-24T10:56:59.972Z,52.72
2018-05-24T10:57:59.943Z,52.7
2018-05-24T10:59:00.032Z,52.74
2018-05-24T10:59:59.860Z,52.73
2018-05-24T11:01:00.205Z,52.72
2018-05-24T11:02:00.002Z,52.7
2018-05-24T11:03:00.233Z,52.71
2018-05-24T11:03:59.969Z,52.74
2018-05-24T11:05:00.078Z,52.7
2018-05-24T11:06:00.257Z,52.78
2018-05-24T11:07:00.053Z,52.72
2018-05-24T11:08:00.135Z,52.72
2018-05-24T11:08:59.985Z,52.71
2018-05-24T11:10:00.099Z,52.68
2018-05-24T11:11:00.061Z,52.68
2018-05-24T11:11:59.967Z,52.7
2018-05-24T11:13:00.052Z,52.69
2018-05-24T11:14:00.002Z,52.72
2018-05-24T11:15:00.148Z,52.66
2018-05-24T11:16:00.067Z,52.67
2018-05-24T11:17:00.016Z,52.69
2018-05-24T11:17:59.871Z,52.62
2018-05-24T11:18:59.916Z,52.72
2018-05-24T11:20:00.112Z,52.67
2018-05-24T11:21:00.192Z,52.67
2018-05-24T11:22:00.041Z,52.66
2018-05-24T11:22:59.957Z,52.61
2018-05-24T11:23:59.937Z,52.71
2018-05-24T11:25:00.141Z,52.67
2018-05-24T11:26:00.024Z,52.64
2018-05-24T11:26:59.937Z,52.66
2018-05-24T11:28:00.225Z,52.64
2018-05-24T11:29:00.171Z,52.65
2018-05-24T11:30:00.158Z,52.59
2018-05-24T11:31:00.062Z,52.67
2018-05-24T11:32:00.366Z,52.61
2018-05-24T11:33:00.256Z,52.64
2018-05-24T11:34:00.274Z,52.62
2018-05-24T11:35:00.088Z,52.65
2018-05-24T11:36:00.014Z,52.62
2018-05-24T11:37:00.206Z,52.63
2018-05-24T11:38:00.109Z,52.6
2018-05-24T11:38:59.964Z,52.64
2018-05-24T11:40:00.200Z,52.6
2018-05-24T11:41:00.025Z,52.64
2018-05-24T11:42:00.140Z,52.64
2018-05-24T11:43:00.213Z,52.64
2018-05-24T11:44:00.120Z,52.6
2018-05-24T11:44:59.951Z,52.63
2018-05-24T11:46:00.107Z,52.64
2018-05-24T11:47:00.219Z,52.64
2018-05-24T11:47:59.931Z,52.63
2018-05-24T11:48:59.919Z,52.63
2018-05-24T11:50:00.037Z,52.62
2018-05-24T11:50:59.895Z,52.58
2018-05-24T11:52:00.091Z,52.6
2018-05-24T11:53:00.064Z,52.65
2018-05-24T11:53:59.964Z,52.59
2018-05-24T11:55:00.110Z,52.62
2018-05-24T11:56:00.076Z,52.6
2018-05-24T11:56:59.974Z,52.61
2018-05-24T11:58:00.096Z,52.56
2018-05-24T11:59:00.060Z,52.55
2018-05-24T11:59:59.993Z,52.57
2018-05-24T12:01:00.111Z,52.55
2018-05-24T12:02:00.013Z,52.5
2018-05-24T12:02:59.954Z,52.54
2018-05-24T12:04:00.012Z,52.55
2018-05-24T12:05:00.030Z,52.57
2018-05-24T12:06:00.095Z,52.6
2018-05-24T12:07:00.208Z,52.56
2018-05-24T12:07:59.969Z,52.55
2018-05-24T12:08:59.992Z,52.54
2018-05-24T12:09:59.945Z,52.54
2018-05-24T12:11:00.044Z,52.53
2018-05-24T12:11:59.893Z,52.6
2018-05-24T12:12:59.957Z,52.57
2018-05-24T12:13:59.928Z,52.53
2018-05-24T12:15:00.104Z,52.59
2018-05-24T12:15:59.951Z,52.53
2018-05-24T12:16:59.945Z,52.49
2018-05-24T12:17:59.972Z,52.54
2018-05-24T12:19:00.074Z,52.52
2018-05-24T12:20:00.149Z,52.55
2018-05-24T12:20:59.914Z,52.6
2018-05-24T12:21:59.924Z,52.5
2018-05-24T12:23:00.072Z,52.5
2018-05-24T12:23:59.876Z,52.58
2018-05-24T12:25:00.253Z,52.52
2018-05-24T12:26:00.030Z,52.56
2018-05-24T12:27:00.056Z,52.51
2018-05-24T12:28:00.032Z,52.5
2018-05-24T12:29:00.016Z,52.51
2018-05-24T12:29:59.921Z,52.52
2018-05-24T12:31:00.111Z,52.48
2018-05-24T12:32:00.098Z,52.53
2018-05-24T12:33:00.080Z,52.5
2018-05-24T12:34:00.262Z,52.58
2018-05-24T12:35:00.133Z,52.49
2018-05-24T12:35:59.944Z,52.56
2018-05-24T12:36:59.862Z,52.49
2018-05-24T12:38:00.023Z,52.48
2018-05-24T12:39:00.085Z,52.49
2018-05-24T12:40:00.035Z,52.44
2018-05-24T12:40:59.982Z,52.49
2018-05-24T12:41:59.958Z,52.56
2018-05-24T12:43:00.120Z,52.53
2018-05-24T12:43:59.977Z,52.5
2018-05-24T12:45:00.038Z,52.46
2018-05-24T12:46:00.066Z,52.51
2018-05-24T12:47:00.149Z,52.43
2018-05-24T12:47:59.948Z,52.45
2018-05-24T12:49:00.036Z,52.47
2018-05-24T12:50:00.179Z,52.48
2018-05-24T12:50:59.957Z,52.44
2018-05-24T12:51:59.909Z,52.44
2018-05-24T12:53:00.264Z,52.45
2018-05-24T12:54:00.138Z,52.47
2018-05-24T12:55:00.194Z,52.46